Time;durP1;ratioP1;P1;durP2;ratioP2;P2;SDS_P1;SDS_P2;PMS_P1;PMS_P2;Temp;Humidity;BMP_temperature;BMP_pressure;BME280_temperature;BME280_humidity;BME280_pressure;Samples;Min_cycle;Max_cycle;Signal;HPM_P1;HPM_P2
2022/04/10 00:01:56;;;;;;;5.40;2.30;;;1.50;99.90;;;;;;5093523;28;20197;-39
2022/04/10 00:04:23;;;;;;;4.67;2.13;;;1.40;99.90;;;;;;5093180;28;20186;-39
2022/04/10 00:06:48;;;;;;;7.77;2.30;;;1.40;99.90;;;;;;5093114;28;20571;-39
2022/04/10 00:09:14;;;;;;;6.97;2.30;;;1.40;99.90;;;;;;5093157;28;20189;-40
2022/04/10 00:11:40;;;;;;;5.07;2.10;;;1.40;99.90;;;;;;5093246;28;20240;-39
2022/04/10 00:14:06;;;;;;;5.37;2.30;;;1.30;99.90;;;;;;5093169;28;20614;-40
2022/04/10 00:16:32;;;;;;;3.27;1.97;;;1.40;99.90;;;;;;5092751;28;20213;-40
2022/04/10 00:19:04;;;;;;;5.47;2.33;;;1.30;99.90;;;;;;5096185;28;20182;-44
2022/04/10 00:21:33;;;;;;;4.33;1.97;;;1.30;99.90;;;;;;5101478;28;20214;-45
2022/04/10 00:23:59;;;;;;;5.13;1.97;;;1.40;99.90;;;;;;5101611;28;20198;-44
2022/04/10 00:26:25;;;;;;;5.73;2.10;;;1.30;99.90;;;;;;5100817;28;20985;-45
2022/04/10 00:28:56;;;;;;;4.67;2.43;;;1.30;99.90;;;;;;5100885;28;20172;-45
2022/04/10 00:31:22;;;;;;;5.07;2.37;;;1.30;99.90;;;;;;5100915;28;20395;-45
2022/04/10 00:33:48;;;;;;;3.87;1.97;;;1.30;99.90;;;;;;5100571;28;20554;-46
2022/04/10 00:36:13;;;;;;;7.33;2.33;;;1.30;99.90;;;;;;5100542;28;20221;-44
2022/04/10 00:38:40;;;;;;;5.47;2.37;;;1.30;99.90;;;;;;5100365;28;20177;-45
2022/04/10 00:41:06;;;;;;;5.57;2.00;;;1.30;99.90;;;;;;5100287;28;20279;-46
2022/04/10 00:43:32;;;;;;;5.03;2.50;;;1.30;99.90;;;;;;5101225;28;20174;-46
2022/04/10 00:45:59;;;;;;;5.30;2.30;;;1.30;99.90;;;;;;5099852;28;20753;-45
2022/04/10 00:48:24;;;;;;;5.97;2.30;;;1.30;99.90;;;;;;5098203;28;20414;-45
2022/04/10 00:53:37;;;;;;;4.37;2.53;;;1.30;99.90;;;;;;5097421;28;20239;-44
2022/04/10 00:56:03;;;;;;;5.07;2.60;;;1.30;99.90;;;;;;5096643;28;20437;-41
2022/04/10 00:58:29;;;;;;;6.47;2.60;;;1.20;99.90;;;;;;5096352;28;20442;-42
2022/04/10 01:00:55;;;;;;;6.80;2.73;;;1.20;99.90;;;;;;5097554;28;20449;-42
2022/04/10 01:03:21;;;;;;;5.27;2.03;;;1.20;99.90;;;;;;5078943;28;20184;-40
2022/04/10 01:05:47;;;;;;;6.50;3.27;;;1.20;99.90;;;;;;5097581;28;20561;-46
2022/04/10 01:08:13;;;;;;;4.10;2.53;;;1.10;99.90;;;;;;5097197;28;20207;-45
2022/04/10 01:10:39;;;;;;;3.47;2.17;;;1.10;99.90;;;;;;5098597;28;20416;-44
2022/04/10 01:13:05;;;;;;;7.63;2.63;;;1.00;99.90;;;;;;5096894;28;20402;-42
2022/04/10 01:15:31;;;;;;;3.57;2.00;;;0.90;99.90;;;;;;5078779;28;20191;-43
2022/04/10 01:17:56;;;;;;;4.07;2.30;;;0.90;99.90;;;;;;5096928;28;20482;-41
2022/04/10 01:20:23;;;;;;;3.23;2.17;;;0.80;99.90;;;;;;5097077;28;20168;-39
2022/04/10 01:22:50;;;;;;;5.70;2.43;;;0.80;99.90;;;;;;5097024;28;20250;-40
2022/04/10 01:25:15;;;;;;;8.83;2.50;;;0.80;99.90;;;;;;5096780;28;20414;-41
2022/04/10 01:27:41;;;;;;;4.13;2.23;;;0.70;99.90;;;;;;5078093;28;20458;-40
2022/04/10 01:30:09;;;;;;;3.97;2.33;;;0.70;99.90;;;;;;5094772;28;20172;-40
2022/04/10 01:32:35;;;;;;;4.80;2.67;;;0.70;99.90;;;;;;5095325;28;20407;-41
2022/04/10 01:35:03;;;;;;;9.40;2.83;;;0.70;99.90;;;;;;5095321;28;20418;-41
2022/04/10 01:37:31;;;;;;;6.03;2.80;;;0.70;99.90;;;;;;5095220;28;20229;-41
2022/04/10 01:39:57;;;;;;;3.90;2.20;;;0.70;99.90;;;;;;5095163;28;20413;-39
2022/04/10 01:42:22;;;;;;;4.97;2.67;;;0.70;99.90;;;;;;5077813;28;20540;-41
2022/04/10 01:44:48;;;;;;;5.33;2.20;;;0.70;99.90;;;;;;5095013;28;20218;-40
2022/04/10 01:47:14;;;;;;;2.67;2.23;;;0.70;99.90;;;;;;5095134;28;20195;-40
2022/04/10 01:49:39;;;;;;;4.80;2.60;;;0.70;99.90;;;;;;5094970;28;20175;-42
2022/04/10 01:52:06;;;;;;;3.17;2.13;;;0.60;99.90;;;;;;5076778;28;20263;-40
2022/04/10 01:54:31;;;;;;;5.07;2.40;;;0.60;99.90;;;;;;5094732;28;20664;-42
2022/04/10 01:56:58;;;;;;;7.13;2.80;;;0.60;99.90;;;;;;5094709;28;20505;-41
2022/04/10 01:59:24;;;;;;;5.17;2.80;;;0.60;99.90;;;;;;5095194;28;20179;-45
2022/04/10 02:01:49;;;;;;;5.60;2.73;;;0.60;99.90;;;;;;5096329;28;20507;-45
2022/04/10 02:04:15;;;;;;;6.37;3.40;;;0.60;99.90;;;;;;5095532;28;20177;-41
2022/04/10 02:06:41;;;;;;;8.03;2.90;;;0.70;99.90;;;;;;5095330;28;20585;-40
2022/04/10 02:09:10;;;;;;;8.63;2.90;;;0.80;99.90;;;;;;5094758;28;20407;-40
2022/04/10 02:11:35;;;;;;;6.50;3.13;;;0.80;99.90;;;;;;5095032;28;20180;-42
2022/04/10 02:14:01;;;;;;;6.73;2.97;;;0.90;99.90;;;;;;5095543;28;20425;-46
2022/04/10 02:16:26;;;;;;;6.70;3.17;;;0.90;99.90;;;;;;5096631;28;20229;-45
2022/04/10 02:18:52;;;;;;;8.60;3.87;;;1.00;99.90;;;;;;5096589;28;20175;-41
2022/04/10 02:21:18;;;;;;;6.60;3.33;;;1.00;99.90;;;;;;5094846;28;20551;-41
2022/04/10 02:23:44;;;;;;;7.33;3.53;;;1.00;99.90;;;;;;5094850;28;20266;-41
2022/04/10 02:26:10;;;;;;;5.37;2.80;;;1.10;99.90;;;;;;5094330;28;20197;-41
2022/04/10 02:28:36;;;;;;;4.27;3.10;;;1.10;99.90;;;;;;5094384;28;20500;-43
2022/04/10 02:31:02;;;;;;;8.77;3.40;;;1.20;99.90;;;;;;5076093;28;20941;-38
2022/04/10 02:33:28;;;;;;;12.50;3.60;;;1.20;99.90;;;;;;5094391;28;20408;-43
2022/04/10 02:35:53;;;;;;;8.53;3.97;;;1.30;99.90;;;;;;5099897;28;20234;-45
2022/04/10 02:38:19;;;;;;;9.57;3.97;;;1.40;99.90;;;;;;5099421;28;20191;-45
2022/04/10 02:40:45;;;;;;;6.17;3.70;;;1.40;99.90;;;;;;5096935;28;20184;-46
2022/04/10 02:43:13;;;;;;;5.97;3.03;;;1.40;99.90;;;;;;5096254;28;20175;-44
2022/04/10 02:45:40;;;;;;;4.07;3.30;;;1.50;99.90;;;;;;5096749;28;20438;-46
2022/04/10 02:48:06;;;;;;;4.33;2.97;;;1.50;99.90;;;;;;5096176;28;20498;-46
2022/04/10 02:50:32;;;;;;;5.13;3.30;;;1.50;99.90;;;;;;5096819;28;20902;-41
2022/04/10 02:52:57;;;;;;;7.67;3.93;;;1.60;99.90;;;;;;5096200;28;20256;-44
2022/04/10 02:55:23;;;;;;;7.57;3.63;;;1.60;99.90;;;;;;5094828;28;20645;-40
2022/04/10 02:57:49;;;;;;;5.77;3.40;;;1.60;99.90;;;;;;5093838;28;20183;-39
2022/04/10 03:00:15;;;;;;;8.33;3.67;;;1.60;99.90;;;;;;5093856;28;20180;-39
2022/04/10 03:02:41;;;;;;;4.43;3.47;;;1.60;99.90;;;;;;5075401;28;20676;-40
2022/04/10 03:05:08;;;;;;;6.00;3.30;;;1.60;99.90;;;;;;5093764;28;20500;-39
2022/04/10 03:07:34;;;;;;;5.43;3.50;;;1.60;99.90;;;;;;5093385;28;20439;-40
2022/04/10 03:10:00;;;;;;;6.93;3.47;;;1.70;99.90;;;;;;5093387;28;20484;-41
2022/04/10 03:12:25;;;;;;;5.73;3.90;;;1.70;99.90;;;;;;5094141;28;20229;-41
2022/04/10 03:14:51;;;;;;;7.90;3.80;;;1.60;99.90;;;;;;5094056;28;20244;-44
2022/04/10 03:17:17;;;;;;;6.40;3.50;;;1.70;99.90;;;;;;5095783;28;20242;-45
2022/04/10 03:19:42;;;;;;;5.97;3.73;;;1.70;99.90;;;;;;5096302;28;20219;-44
2022/04/10 03:22:08;;;;;;;7.17;3.50;;;1.70;99.90;;;;;;5095366;28;20201;-45
2022/04/10 03:24:33;;;;;;;6.97;3.90;;;1.70;99.90;;;;;;5095507;28;20170;-45
2022/04/10 03:26:59;;;;;;;5.70;3.43;;;1.80;99.90;;;;;;5095532;28;20199;-45
2022/04/10 03:29:24;;;;;;;7.97;3.93;;;1.80;99.90;;;;;;5095339;28;20182;-45
2022/04/10 03:31:50;;;;;;;6.70;3.60;;;1.80;99.90;;;;;;5095218;28;20196;-44
2022/04/10 03:34:16;;;;;;;5.50;3.77;;;1.80;99.90;;;;;;5094734;28;20263;-46
2022/04/10 03:36:41;;;;;;;8.67;3.90;;;1.90;99.90;;;;;;5094273;28;20237;-44
2022/04/10 03:39:07;;;;;;;8.97;4.30;;;1.90;99.90;;;;;;5094699;28;20183;-45
2022/04/10 03:41:32;;;;;;;7.53;3.90;;;1.90;99.90;;;;;;5094614;28;20211;-46
2022/04/10 03:43:58;;;;;;;4.83;3.53;;;2.00;99.90;;;;;;5094954;28;20213;-45
2022/04/10 03:46:24;;;;;;;7.87;4.07;;;2.00;99.90;;;;;;5076651;28;20242;-45
2022/04/10 03:48:49;;;;;;;5.73;3.40;;;2.00;99.90;;;;;;5094314;28;20191;-45
2022/04/10 03:51:15;;;;;;;6.83;3.80;;;2.00;99.90;;;;;;5094308;28;20189;-46
2022/04/10 03:53:41;;;;;;;7.90;3.80;;;2.00;99.90;;;;;;5096082;28;20175;-44
2022/04/10 03:56:07;;;;;;;5.47;3.63;;;2.00;99.90;;;;;;5097259;28;20258;-44
2022/04/10 03:58:32;;;;;;;8.80;4.10;;;2.00;99.90;;;;;;5097263;28;20644;-44
2022/04/10 04:00:58;;;;;;;9.13;3.67;;;2.00;99.90;;;;;;5096984;28;20184;-45
2022/04/10 04:03:24;;;;;;;7.50;3.93;;;2.00;99.90;;;;;;5096898;28;20605;-43
2022/04/10 04:05:50;;;;;;;6.70;3.93;;;1.90;99.90;;;;;;5096686;28;20231;-43
2022/04/10 04:08:15;;;;;;;5.73;3.43;;;1.90;99.90;;;;;;5096903;28;20184;-43
2022/04/10 04:10:41;;;;;;;7.53;3.87;;;1.90;99.90;;;;;;5078408;28;20547;-42
2022/04/10 04:13:07;;;;;;;6.93;3.80;;;1.90;99.90;;;;;;5096836;28;20182;-41
2022/04/10 04:15:33;;;;;;;7.73;3.60;;;2.00;99.90;;;;;;5096409;28;20203;-43
2022/04/10 04:17:58;;;;;;;8.07;4.53;;;1.90;99.90;;;;;;5096519;28;20182;-45
2022/04/10 04:20:24;;;;;;;9.43;4.50;;;2.00;99.90;;;;;;5096467;28;20213;-42
2022/04/10 04:22:49;;;;;;;6.20;4.20;;;2.00;99.90;;;;;;5096320;28;20203;-44
2022/04/10 04:25:15;;;;;;;8.60;4.67;;;2.00;99.90;;;;;;5096939;28;20667;-45
2022/04/10 04:27:41;;;;;;;6.60;4.63;;;2.00;99.90;;;;;;5096240;28;20191;-44
2022/04/10 04:30:07;;;;;;;8.67;4.87;;;2.00;99.90;;;;;;5096626;28;20224;-44
2022/04/10 04:32:33;;;;;;;10.47;5.10;;;2.00;99.90;;;;;;5096405;28;20190;-44
2022/04/10 04:34:58;;;;;;;10.03;5.27;;;2.00;99.90;;;;;;5096963;28;20417;-46
2022/04/10 04:37:24;;;;;;;7.30;5.23;;;2.00;99.90;;;;;;5098942;28;20543;-45
2022/04/10 04:39:49;;;;;;;10.80;5.53;;;2.00;99.90;;;;;;5098785;28;20228;-45
2022/04/10 04:42:15;;;;;;;8.07;5.23;;;2.00;99.90;;;;;;5098996;28;20211;-45
2022/04/10 04:44:41;;;;;;;8.33;6.07;;;2.00;99.90;;;;;;5100305;28;20208;-46
2022/04/10 04:47:06;;;;;;;10.00;6.20;;;2.00;99.90;;;;;;5099933;28;20674;-45
2022/04/10 04:49:32;;;;;;;8.77;5.67;;;2.00;99.90;;;;;;5098935;28;20182;-44
2022/04/10 04:51:57;;;;;;;10.13;6.03;;;2.00;99.90;;;;;;5098959;28;20656;-45
2022/04/10 04:54:23;;;;;;;10.60;6.83;;;2.00;99.90;;;;;;5098423;28;20176;-44
2022/04/10 04:56:49;;;;;;;8.93;5.93;;;2.00;99.90;;;;;;5096067;28;20208;-43
2022/04/10 04:59:15;;;;;;;14.93;6.53;;;2.10;99.90;;;;;;5095793;28;20183;-44
2022/04/10 05:01:41;;;;;;;9.10;6.03;;;2.00;99.90;;;;;;5078743;28;20203;-41
2022/04/10 05:04:11;;;;;;;8.30;6.07;;;2.10;99.90;;;;;;5098687;28;20180;-41
2022/04/10 05:06:39;;;;;;;10.17;5.77;;;2.10;99.90;;;;;;5097320;28;20527;-39
2022/04/10 05:09:05;;;;;;;10.17;5.63;;;2.20;99.90;;;;;;5096933;28;20445;-40
2022/04/10 05:11:31;;;;;;;12.43;6.63;;;2.20;99.90;;;;;;5096915;28;20434;-40
2022/04/10 05:13:56;;;;;;;8.37;6.00;;;2.20;99.90;;;;;;5095989;28;20429;-41
2022/04/10 05:16:22;;;;;;;7.17;5.37;;;2.20;99.90;;;;;;5077480;28;20310;-40
2022/04/10 05:18:49;;;;;;;8.77;6.07;;;2.20;99.90;;;;;;5095623;28;20294;-40
2022/04/10 05:21:15;;;;;;;9.50;5.60;;;2.30;99.90;;;;;;5095285;28;21004;-40
2022/04/10 05:23:41;;;;;;;8.67;4.83;;;2.30;99.90;;;;;;5095244;28;20181;-41
2022/04/10 05:26:07;;;;;;;11.13;5.13;;;2.30;99.90;;;;;;5095131;28;20421;-40
2022/04/10 05:28:34;;;;;;;10.63;5.07;;;2.30;99.90;;;;;;5095252;28;20705;-40
2022/04/10 05:31:03;;;;;;;8.17;5.30;;;2.40;99.90;;;;;;5095027;28;20259;-40
2022/04/10 05:33:32;;;;;;;7.63;5.57;;;2.40;99.90;;;;;;5076945;28;20420;-42
2022/04/10 05:35:57;;;;;;;10.37;5.53;;;2.40;99.90;;;;;;5094941;28;20433;-39
2022/04/10 05:38:23;;;;;;;12.60;5.70;;;2.40;99.90;;;;;;5095166;28;20416;-40
2022/04/10 05:40:52;;;;;;;6.77;5.20;;;2.50;99.90;;;;;;5094827;28;20171;-40
2022/04/10 05:43:22;;;;;;;10.63;5.57;;;2.50;99.90;;;;;;5076882;28;20184;-40
2022/04/10 05:45:49;;;;;;;7.17;5.10;;;2.50;99.90;;;;;;5094657;28;20817;-46
2022/04/10 05:48:14;;;;;;;10.50;5.60;;;2.50;99.90;;;;;;5094662;28;20425;-44
2022/04/10 05:50:40;;;;;;;10.27;5.83;;;2.60;99.90;;;;;;5094974;28;20429;-45
2022/04/10 05:53:06;;;;;;;8.80;5.40;;;2.60;99.90;;;;;;5094668;28;20698;-45
2022/04/10 05:55:32;;;;;;;9.40;5.50;;;2.60;99.90;;;;;;5094865;28;20176;-43
2022/04/10 05:57:57;;;;;;;9.33;5.70;;;2.70;99.90;;;;;;5094502;28;20176;-43
2022/04/10 06:00:24;;;;;;;9.37;5.90;;;2.80;99.90;;;;;;5094707;28;20178;-42
2022/04/10 06:02:50;;;;;;;11.90;5.97;;;2.80;99.90;;;;;;5076126;28;20206;-44
2022/04/10 06:05:15;;;;;;;13.50;6.87;;;2.80;99.90;;;;;;5094681;28;20463;-43
2022/04/10 06:07:41;;;;;;;9.60;6.63;;;2.90;99.90;;;;;;5094247;28;20202;-44
2022/04/10 06:10:07;;;;;;;12.70;7.33;;;2.90;99.90;;;;;;5094569;28;20239;-45
2022/04/10 06:12:33;;;;;;;11.47;6.53;;;2.90;99.90;;;;;;5094314;28;20421;-45
2022/04/10 06:14:59;;;;;;;11.17;6.60;;;3.00;99.90;;;;;;5094148;28;20245;-45
2022/04/10 06:17:24;;;;;;;9.67;7.37;;;3.10;99.90;;;;;;5094324;28;20245;-44
2022/04/10 06:19:50;;;;;;;11.27;6.87;;;3.20;99.90;;;;;;5076018;28;20191;-46
2022/04/10 06:22:15;;;;;;;13.90;7.33;;;3.30;99.90;;;;;;5094039;28;20661;-41
2022/04/10 06:24:41;;;;;;;12.23;7.73;;;3.50;99.90;;;;;;5094169;28;20214;-39
2022/04/10 06:27:07;;;;;;;11.47;7.10;;;3.80;99.90;;;;;;5075867;28;20199;-41
2022/04/10 06:29:33;;;;;;;12.40;8.30;;;4.10;99.90;;;;;;5094398;28;20190;-41
2022/04/10 06:31:58;;;;;;;14.77;7.83;;;4.40;99.90;;;;;;5094291;28;20660;-42
2022/04/10 06:34:24;;;;;;;12.37;6.67;;;4.60;99.90;;;;;;5094290;28;20186;-42
2022/04/10 06:36:50;;;;;;;8.10;5.53;;;4.90;99.90;;;;;;5075748;28;20203;-41
2022/04/10 06:39:18;;;;;;;13.27;6.63;;;5.10;99.90;;;;;;5093914;28;20700;-44
2022/04/10 06:41:44;;;;;;;11.17;7.87;;;5.30;99.90;;;;;;5094077;28;20215;-45
2022/04/10 06:44:10;;;;;;;16.63;7.90;;;5.40;99.90;;;;;;5093789;28;20415;-43
2022/04/10 06:46:37;;;;;;;17.23;7.77;;;5.60;99.90;;;;;;5093671;28;20284;-44
2022/04/10 06:49:03;;;;;;;11.00;7.20;;;5.70;99.90;;;;;;5093870;28;20170;-43
2022/04/10 06:51:29;;;;;;;10.30;6.97;;;5.80;99.90;;;;;;5093713;28;20186;-44
2022/04/10 06:53:54;;;;;;;10.23;6.03;;;5.90;99.90;;;;;;5093847;28;20191;-44
2022/04/10 06:56:20;;;;;;;13.97;8.30;;;6.10;99.90;;;;;;5093708;28;20289;-44
2022/04/10 06:58:45;;;;;;;12.90;8.00;;;6.20;99.90;;;;;;5093643;28;20185;-44
2022/04/10 07:01:11;;;;;;;14.93;7.60;;;6.30;99.90;;;;;;5075444;28;20721;-43
2022/04/10 07:03:37;;;;;;;13.77;7.60;;;6.40;99.90;;;;;;5093578;28;20182;-43
2022/04/10 07:06:03;;;;;;;13.70;8.17;;;6.50;99.90;;;;;;5093549;28;20219;-40
2022/04/10 07:08:29;;;;;;;12.30;7.63;;;6.60;99.90;;;;;;5093634;28;20640;-41
2022/04/10 07:10:54;;;;;;;15.13;7.50;;;6.70;99.90;;;;;;5094196;28;20753;-42
2022/04/10 07:13:21;;;;;;;10.37;7.17;;;6.80;99.90;;;;;;5075348;28;20186;-38
2022/04/10 07:15:52;;;;;;;13.37;7.53;;;7.00;99.90;;;;;;5093313;28;20218;-39
2022/04/10 07:18:18;;;;;;;10.37;6.67;;;7.10;99.90;;;;;;5093697;28;20250;-42
2022/04/10 07:20:44;;;;;;;14.27;7.77;;;7.20;99.90;;;;;;5093654;28;20186;-41
2022/04/10 07:25:54;;;;;;;11.73;6.67;;;7.40;99.90;;;;;;5093966;28;20723;-41
2022/04/10 07:28:20;;;;;;;11.97;6.43;;;7.60;99.90;;;;;;5096516;28;20181;-41
2022/04/10 07:30:46;;;;;;;8.50;6.37;;;7.70;99.90;;;;;;5100131;28;20186;-41
2022/04/10 07:33:12;;;;;;;9.27;6.10;;;7.80;99.90;;;;;;5100626;28;20586;-41
2022/04/10 07:35:41;;;;;;;10.83;6.50;;;7.90;99.90;;;;;;5100686;28;20256;-42
2022/04/10 07:38:08;;;;;;;8.27;6.00;;;8.00;99.90;;;;;;5100374;28;20177;-39
2022/04/10 07:40:35;;;;;;;8.97;6.30;;;8.10;99.90;;;;;;5100008;28;20185;-42
2022/04/10 07:43:01;;;;;;;12.50;4.70;;;8.20;99.90;;;;;;5100335;28;20579;-40
2022/04/10 07:48:12;;;;;;;11.87;5.87;;;8.40;99.90;;;;;;5100089;28;20230;-39
2022/04/10 07:50:38;;;;;;;9.27;5.43;;;8.50;99.90;;;;;;5081863;28;20186;-41
2022/04/10 07:53:04;;;;;;;14.87;6.13;;;8.60;99.90;;;;;;5100014;28;20186;-42
2022/04/10 07:55:30;;;;;;;12.73;5.07;;;8.70;99.90;;;;;;5081839;28;20178;-42
2022/04/10 07:57:57;;;;;;;8.73;4.43;;;8.80;99.90;;;;;;5081818;28;20194;-41
2022/04/10 08:00:22;;;;;;;7.20;4.23;;;8.90;99.90;;;;;;5100168;28;20187;-41
2022/04/10 08:02:48;;;;;;;12.63;4.60;;;9.00;99.90;;;;;;5100344;28;20214;-42
2022/04/10 08:05:19;;;;;;;7.80;4.33;;;9.00;99.90;;;;;;5100140;28;20183;-42
2022/04/10 08:07:46;;;;;;;10.00;5.47;;;9.10;99.90;;;;;;5099938;28;20670;-42
2022/04/10 08:10:12;;;;;;;9.43;4.77;;;9.20;99.90;;;;;;5100342;28;20186;-39
2022/04/10 08:12:39;;;;;;;9.57;4.37;;;9.20;99.90;;;;;;5100147;28;20181;-46
2022/04/10 08:15:05;;;;;;;9.17;4.30;;;9.20;99.90;;;;;;5099987;28;20202;-43
2022/04/10 08:17:31;;;;;;;12.03;4.27;;;9.40;99.90;;;;;;5081476;28;20207;-43
2022/04/10 08:19:57;;;;;;;10.00;5.53;;;9.60;99.90;;;;;;5099727;28;20189;-44
2022/04/10 08:22:24;;;;;;;8.30;3.83;;;9.70;99.90;;;;;;5099745;28;20665;-44
2022/04/10 08:24:50;;;;;;;9.67;4.40;;;9.80;99.90;;;;;;5099672;28;20191;-43
2022/04/10 08:27:16;;;;;;;7.63;4.30;;;9.80;99.90;;;;;;5099572;28;20238;-39
2022/04/10 08:29:41;;;;;;;7.27;3.37;;;9.60;99.90;;;;;;5100322;28;20180;-44
2022/04/10 08:32:07;;;;;;;7.87;3.30;;;9.40;99.90;;;;;;5099671;28;20694;-40
2022/04/10 08:34:33;;;;;;;5.67;2.70;;;9.20;99.90;;;;;;5100128;28;20188;-42
2022/04/10 08:37:05;;;;;;;7.47;3.43;;;9.20;99.90;;;;;;5099723;28;20257;-41
2022/04/10 08:39:34;;;;;;;9.50;3.60;;;9.30;99.90;;;;;;5078805;28;20195;-43
2022/04/10 08:42:06;;;;;;;4.63;3.00;;;9.40;99.90;;;;;;5096373;28;20231;-42
2022/04/10 08:44:32;;;;;;;7.87;3.37;;;9.50;99.90;;;;;;5096657;28;20632;-42
2022/04/10 08:46:59;;;;;;;9.33;3.37;;;9.70;99.90;;;;;;5096192;28;20198;-41
2022/04/10 08:49:26;;;;;;;5.63;3.13;;;9.80;99.90;;;;;;5096127;28;20173;-40
2022/04/10 08:51:53;;;;;;;7.43;3.67;;;10.00;99.90;;;;;;5096274;28;20194;-42
2022/04/10 08:54:20;;;;;;;6.27;3.10;;;10.10;99.90;;;;;;5096228;28;20213;-40
2022/04/10 08:56:46;;;;;;;5.23;2.70;;;10.00;99.90;;;;;;5077784;28;20205;-43
2022/04/10 08:59:12;;;;;;;6.47;3.50;;;9.70;99.90;;;;;;5078027;28;20231;-40
2022/04/10 09:01:38;;;;;;;6.77;3.70;;;9.50;99.90;;;;;;5095901;28;20205;-43
2022/04/10 09:04:04;;;;;;;6.30;3.10;;;9.40;99.90;;;;;;5095763;28;20591;-41
2022/04/10 09:06:30;;;;;;;9.80;3.27;;;9.40;99.90;;;;;;5097883;28;20225;-45
2022/04/10 09:09:12;;;;;;;9.97;2.60;;;9.40;99.90;;;;;;5097667;28;20186;-46
2022/04/10 09:11:42;;;;;;;6.33;3.03;;;9.40;99.90;;;;;;5097048;28;20175;-45
2022/04/10 09:14:07;;;;;;;4.53;3.00;;;9.40;99.90;;;;;;5095896;28;20190;-42
2022/04/10 09:16:33;;;;;;;4.47;2.47;;;9.50;99.90;;;;;;5095412;28;20309;-42
2022/04/10 09:19:08;;;;;;;6.40;2.57;;;9.70;99.90;;;;;;5077347;28;20187;-41
2022/04/10 09:21:39;;;;;;;8.60;3.00;;;9.80;99.90;;;;;;5077339;28;20240;-41
2022/04/10 09:24:09;;;;;;;5.10;2.83;;;9.70;99.90;;;;;;5095455;28;20179;-42
2022/04/10 09:26:56;;;;;;;5.73;2.17;;;9.80;99.90;;;;;;5095545;28;20609;-42
2022/04/10 09:29:24;;;;;;;4.27;1.93;;;9.90;99.90;;;;;;5095577;28;20194;-43
2022/04/10 09:31:51;;;;;;;5.00;2.20;;;9.90;99.90;;;;;;5095274;28;20187;-40
2022/04/10 09:34:21;;;;;;;5.60;2.40;;;9.80;99.90;;;;;;5077073;28;20183;-40
2022/04/10 09:36:58;;;;;;;4.47;2.17;;;9.60;99.90;;;;;;5095649;28;20199;-41
2022/04/10 09:39:33;;;;;;;4.57;2.60;;;9.80;99.90;;;;;;5076950;28;20174;-40
2022/04/10 09:42:07;;;;;;;5.00;2.50;;;10.10;99.90;;;;;;5094963;28;20202;-41
2022/04/10 09:44:34;;;;;;;3.93;2.23;;;10.40;99.90;;;;;;5076936;28;20175;-44
2022/04/10 09:47:02;;;;;;;4.07;2.47;;;10.40;99.90;;;;;;5095105;28;20194;-43
2022/04/10 09:49:32;;;;;;;4.40;2.40;;;10.30;99.90;;;;;;5076846;28;20179;-43
2022/04/10 09:52:03;;;;;;;4.07;2.23;;;10.30;99.90;;;;;;5095432;28;20202;-45
2022/04/10 09:54:42;;;;;;;6.27;2.40;;;10.40;99.90;;;;;;5078035;28;20182;-43
2022/04/10 09:57:13;;;;;;;4.57;2.57;;;10.60;99.90;;;;;;5095405;28;20199;-41
2022/04/10 09:59:42;;;;;;;4.93;2.10;;;10.60;99.90;;;;;;5095965;28;20183;-42
2022/04/10 10:02:08;;;;;;;6.03;2.00;;;10.70;99.90;;;;;;5095119;28;20214;-43
2022/04/10 10:04:37;;;;;;;5.33;2.17;;;10.80;99.90;;;;;;5095165;28;20178;-40
2022/04/10 10:07:05;;;;;;;4.87;2.23;;;11.00;99.90;;;;;;5095779;28;20190;-41
2022/04/10 10:09:33;;;;;;;5.53;2.00;;;11.10;99.90;;;;;;5076718;28;20179;-43
2022/04/10 10:12:00;;;;;;;8.03;2.33;;;11.10;99.90;;;;;;5095097;28;20296;-44
2022/04/10 10:14:29;;;;;;;5.10;2.70;;;11.10;99.90;;;;;;5076602;28;20186;-42
2022/04/10 10:16:57;;;;;;;4.67;2.13;;;11.00;99.90;;;;;;5094641;28;20256;-43
2022/04/10 10:19:24;;;;;;;3.07;1.77;;;10.90;99.90;;;;;;5094791;28;20585;-43
2022/04/10 10:21:54;;;;;;;2.90;1.40;;;11.00;99.90;;;;;;5094594;28;20202;-42
2022/04/10 10:24:23;;;;;;;4.30;1.50;;;11.00;99.90;;;;;;5094911;28;20163;-41
2022/04/10 10:27:25;;;;;;;3.87;1.50;;;11.00;99.90;;;;;;5094431;28;20219;-41
2022/04/10 10:30:18;;;;;;;5.40;2.00;;;11.20;99.90;;;;;;5094564;28;20162;-40
2022/04/10 10:32:47;;;;;;;5.30;1.90;;;11.40;99.90;;;;;;5094385;28;20166;-43
2022/04/10 10:35:27;;;;;;;2.87;1.60;;;11.50;99.90;;;;;;5094237;28;20181;-40
2022/04/10 10:37:53;;;;;;;2.03;1.20;;;11.40;99.90;;;;;;5094332;28;20171;-41
2022/04/10 10:40:20;;;;;;;4.70;1.50;;;11.40;99.90;;;;;;5094018;28;20182;-41
2022/04/10 10:42:51;;;;;;;2.50;1.47;;;11.40;99.90;;;;;;5075880;28;20209;-40
2022/04/10 10:45:31;;;;;;;1.77;1.30;;;11.30;99.90;;;;;;5094031;28;20258;-41
2022/04/10 10:48:31;;;;;;;2.03;1.50;;;11.40;99.90;;;;;;5094239;28;20159;-42
2022/04/10 10:51:09;;;;;;;3.10;1.20;;;11.40;99.90;;;;;;5094129;28;20266;-43
2022/04/10 10:53:55;;;;;;;3.70;1.30;;;11.40;99.90;;;;;;5094413;28;20166;-45
2022/04/10 10:56:22;;;;;;;3.23;1.80;;;11.20;99.90;;;;;;5095980;28;20281;-47
2022/04/10 10:58:48;;;;;;;3.47;1.57;;;11.10;99.90;;;;;;5095845;28;20178;-47
2022/04/10 11:01:28;;;;;;;2.90;1.40;;;11.10;99.90;;;;;;5096379;28;20175;-47
2022/04/10 11:04:09;;;;;;;3.43;1.60;;;11.00;99.90;;;;;;5095929;28;20516;-47
2022/04/10 11:06:52;;;;;;;2.83;1.43;;;10.80;99.90;;;;;;5096685;28;20198;-46
2022/04/10 11:09:18;;;;;;;2.30;1.47;;;10.70;99.90;;;;;;5096384;28;20167;-44
2022/04/10 11:11:44;;;;;;;4.40;1.80;;;10.60;99.90;;;;;;5096244;28;20179;-46
2022/04/10 11:14:50;;;;;;;3.87;1.20;;;10.80;99.90;;;;;;5096382;28;20610;-47
2022/04/10 11:17:21;;;;;;;1.83;1.10;;;10.80;99.90;;;;;;5095238;28;20222;-46
2022/04/10 11:19:56;;;;;;;3.07;1.17;;;11.10;99.90;;;;;;5095594;28;20183;-45
2022/04/10 11:22:33;;;;;;;2.87;1.20;;;11.40;99.90;;;;;;5095236;28;20198;-46
2022/04/10 11:25:03;;;;;;;6.07;2.30;;;11.70;99.90;;;;;;5095145;28;20170;-46
2022/04/10 11:27:51;;;;;;;3.57;1.40;;;11.80;99.90;;;;;;5094554;28;20198;-44
2022/04/10 11:30:32;;;;;;;3.77;1.50;;;11.70;99.90;;;;;;5094485;28;20517;-44
2022/04/10 11:32:57;;;;;;;3.63;1.33;;;11.70;99.90;;;;;;5095305;28;20532;-45
2022/04/10 11:35:25;;;;;;;4.23;1.67;;;11.70;99.90;;;;;;5076413;28;20187;-47
2022/04/10 11:37:53;;;;;;;3.23;1.60;;;11.70;99.90;;;;;;5076146;28;20266;-46
2022/04/10 11:40:27;;;;;;;2.47;1.20;;;11.50;99.90;;;;;;5094105;28;20223;-47
2022/04/10 11:42:55;;;;;;;2.10;1.27;;;11.40;99.90;;;;;;5094551;28;20324;-47
2022/04/10 11:45:26;;;;;;;2.53;1.50;;;11.50;99.90;;;;;;5094636;28;20606;-45
2022/04/10 11:47:52;;;;;;;3.20;1.30;;;11.50;99.90;;;;;;5094218;28;20175;-46
2022/04/10 11:50:19;;;;;;;5.97;1.80;;;11.50;99.90;;;;;;5094407;28;20655;-45
2022/04/10 11:53:13;;;;;;;7.40;1.90;;;11.50;99.90;;;;;;5075798;28;20218;-46
2022/04/10 11:55:45;;;;;;;2.90;1.63;;;11.50;99.90;;;;;;5093832;28;20206;-47
2022/04/10 11:58:17;;;;;;;4.53;1.40;;;11.60;99.90;;;;;;5094569;28;20171;-45
2022/04/10 12:00:59;;;;;;;2.50;1.50;;;11.60;99.90;;;;;;5094134;28;20171;-46
2022/04/10 12:03:27;;;;;;;4.13;1.47;;;11.70;99.90;;;;;;5093726;28;20199;-46
2022/04/10 12:05:53;;;;;;;3.60;1.97;;;11.60;99.90;;;;;;5094201;28;20202;-46
2022/04/10 12:08:20;;;;;;;3.03;1.47;;;11.60;99.90;;;;;;5094049;28;20179;-45
2022/04/10 12:10:57;;;;;;;4.23;1.60;;;11.70;99.90;;;;;;5094039;28;20591;-46
2022/04/10 12:13:39;;;;;;;2.50;1.57;;;11.80;99.90;;;;;;5093998;28;20267;-45
2022/04/10 12:16:17;;;;;;;4.30;2.07;;;11.90;99.90;;;;;;5079200;28;20225;-47
2022/04/10 12:18:48;;;;;;;2.93;1.70;;;11.90;99.90;;;;;;5097640;28;20272;-45
2022/04/10 12:21:14;;;;;;;4.17;2.00;;;12.00;99.90;;;;;;5097305;28;20680;-47
2022/04/10 12:23:40;;;;;;;2.93;1.80;;;12.00;99.90;;;;;;5097106;28;20179;-48
2022/04/10 12:26:06;;;;;;;3.67;1.70;;;12.10;99.90;;;;;;5097307;28;20273;-47
2022/04/10 12:28:32;;;;;;;2.57;1.40;;;12.10;99.90;;;;;;5097567;28;20228;-46
2022/04/10 12:31:02;;;;;;;5.83;1.93;;;12.00;99.90;;;;;;5097896;28;20519;-47
2022/04/10 12:33:29;;;;;;;6.10;2.40;;;11.80;99.90;;;;;;5097578;28;20183;-41
2022/04/10 12:35:58;;;;;;;2.63;1.60;;;11.60;99.90;;;;;;5097437;28;20203;-43
2022/04/10 12:38:29;;;;;;;9.27;1.70;;;11.60;99.90;;;;;;5097086;28;20359;-42
2022/04/10 12:41:07;;;;;;;3.70;2.13;;;11.60;99.90;;;;;;5097230;28;20185;-43
2022/04/10 12:43:32;;;;;;;3.27;1.80;;;11.80;99.90;;;;;;5078571;28;20182;-42
2022/04/10 12:46:08;;;;;;;2.83;1.67;;;11.90;99.90;;;;;;5096552;28;20301;-41
2022/04/10 12:48:34;;;;;;;3.77;2.00;;;11.90;99.90;;;;;;5096155;28;20215;-44
2022/04/10 12:51:11;;;;;;;3.33;1.83;;;12.00;99.90;;;;;;5078380;28;20547;-43
2022/04/10 12:53:37;;;;;;;1.60;1.50;;;12.30;99.90;;;;;;5096351;28;20502;-43
2022/04/10 12:56:19;;;;;;;3.53;1.83;;;12.60;99.90;;;;;;5096129;28;20545;-48
2022/04/10 12:58:47;;;;;;;5.50;2.00;;;13.00;99.90;;;;;;5096320;28;20241;-46
2022/04/10 13:01:30;;;;;;;3.63;1.93;;;13.00;99.90;;;;;;5096289;28;20179;-48
2022/04/10 13:03:58;;;;;;;4.80;1.70;;;12.70;99.90;;;;;;5096464;28;20232;-43
2022/04/10 13:06:27;;;;;;;3.80;1.73;;;12.50;99.90;;;;;;5096131;28;20251;-42